sensor_id;sensor_type;location;lat;lon;timestamp;P1;durP1;ratioP1;P2;durP2;ratioP2
49852;SDS011;35751;48.072;11.688;2023-07-09T00:00:29;10.20;;;6.20;;
49852;SDS011;35751;48.072;11.688;2023-07-09T00:02:54;9.77;;;6.22;;
49852;SDS011;35751;48.072;11.688;2023-07-09T00:05:19;9.70;;;5.78;;
49852;SDS011;35751;48.072;11.688;2023-07-09T00:07:44;10.00;;;6.75;;
49852;SDS011;35751;48.072;11.688;2023-07-09T00:10:17;9.57;;;6.65;;
49852;SDS011;35751;48.072;11.688;2023-07-09T00:12:44;11.93;;;6.25;;
49852;SDS011;35751;48.072;11.688;2023-07-09T00:15:10;14.38;;;7.50;;
49852;SDS011;35751;48.072;11.688;2023-07-09T00:17:37;13.40;;;7.57;;
49852;SDS011;35751;48.072;11.688;2023-07-09T00:20:04;9.07;;;6.18;;
49852;SDS011;35751;48.072;11.688;2023-07-09T00:22:36;9.77;;;6.03;;
49852;SDS011;35751;48.072;11.688;2023-07-09T00:25:01;11.73;;;5.97;;
49852;SDS011;35751;48.072;11.688;2023-07-09T00:27:27;9.43;;;6.70;;
49852;SDS011;35751;48.072;11.688;2023-07-09T00:29:56;9.75;;;6.95;;
49852;SDS011;35751;48.072;11.688;2023-07-09T00:32:21;13.38;;;7.50;;
49852;SDS011;35751;48.072;11.688;2023-07-09T00:34:50;9.20;;;6.30;;
49852;SDS011;35751;48.072;11.688;2023-07-09T00:37:16;9.82;;;5.95;;
49852;SDS011;35751;48.072;11.688;2023-07-09T00:39:46;12.00;;;5.80;;
49852;SDS011;35751;48.072;11.688;2023-07-09T00:42:13;10.48;;;6.43;;
49852;SDS011;35751;48.072;11.688;2023-07-09T00:44:43;11.27;;;6.53;;
49852;SDS011;35751;48.072;11.688;2023-07-09T00:52:59;11.93;;;7.15;;
49852;SDS011;35751;48.072;11.688;2023-07-09T00:55:32;10.65;;;6.65;;
49852;SDS011;35751;48.072;11.688;2023-07-09T00:58:03;11.13;;;6.53;;
49852;SDS011;35751;48.072;11.688;2023-07-09T01:00:36;10.13;;;6.00;;
49852;SDS011;35751;48.072;11.688;2023-07-09T01:03:11;8.77;;;6.32;;
49852;SDS011;35751;48.072;11.688;2023-07-09T01:05:41;8.88;;;5.80;;
49852;SDS011;35751;48.072;11.688;2023-07-09T01:08:09;9.65;;;6.68;;
49852;SDS011;35751;48.072;11.688;2023-07-09T01:10:35;11.93;;;7.82;;
49852;SDS011;35751;48.072;11.688;2023-07-09T01:13:00;8.57;;;5.97;;
49852;SDS011;35751;48.072;11.688;2023-07-09T01:15:26;9.18;;;5.57;;
49852;SDS011;35751;48.072;11.688;2023-07-09T01:17:52;10.75;;;6.13;;
49852;SDS011;35751;48.072;11.688;2023-07-09T01:20:20;10.07;;;6.32;;
49852;SDS011;35751;48.072;11.688;2023-07-09T01:22:47;11.25;;;6.50;;
49852;SDS011;35751;48.072;11.688;2023-07-09T01:25:19;10.20;;;7.00;;
49852;SDS011;35751;48.072;11.688;2023-07-09T01:27:45;14.82;;;6.32;;
49852;SDS011;35751;48.072;11.688;2023-07-09T01:30:13;9.60;;;5.88;;
49852;SDS011;35751;48.072;11.688;2023-07-09T01:32:41;9.02;;;5.88;;
49852;SDS011;35751;48.072;11.688;2023-07-09T01:35:11;10.60;;;5.30;;
49852;SDS011;35751;48.072;11.688;2023-07-09T01:37:38;9.60;;;6.47;;
49852;SDS011;35751;48.072;11.688;2023-07-09T01:40:04;14.98;;;7.65;;
49852;SDS011;35751;48.072;11.688;2023-07-09T01:42:33;9.52;;;5.32;;
49852;SDS011;35751;48.072;11.688;2023-07-09T01:44:58;14.15;;;7.57;;
49852;SDS011;35751;48.072;11.688;2023-07-09T01:47:24;7.22;;;5.10;;
49852;SDS011;35751;48.072;11.688;2023-07-09T01:49:50;12.60;;;6.30;;
49852;SDS011;35751;48.072;11.688;2023-07-09T01:52:16;10.23;;;5.80;;
49852;SDS011;35751;48.072;11.688;2023-07-09T01:54:44;8.88;;;5.90;;
49852;SDS011;35751;48.072;11.688;2023-07-09T01:57:15;12.50;;;6.47;;
49852;SDS011;35751;48.072;11.688;2023-07-09T01:59:41;8.60;;;5.72;;
49852;SDS011;35751;48.072;11.688;2023-07-09T02:02:07;9.52;;;5.88;;
49852;SDS011;35751;48.072;11.688;2023-07-09T02:04:33;8.48;;;6.03;;
49852;SDS011;35751;48.072;11.688;2023-07-09T02:06:58;9.23;;;5.30;;
49852;SDS011;35751;48.072;11.688;2023-07-09T02:09:24;10.60;;;6.28;;
49852;SDS011;35751;48.072;11.688;2023-07-09T02:11:49;9.13;;;5.80;;
49852;SDS011;35751;48.072;11.688;2023-07-09T02:14:19;16.73;;;7.22;;
49852;SDS011;35751;48.072;11.688;2023-07-09T02:16:44;8.45;;;5.18;;
49852;SDS011;35751;48.072;11.688;2023-07-09T02:19:09;10.40;;;6.38;;
49852;SDS011;35751;48.072;11.688;2023-07-09T02:21:35;9.60;;;5.90;;
49852;SDS011;35751;48.072;11.688;2023-07-09T02:24:00;15.25;;;7.93;;
49852;SDS011;35751;48.072;11.688;2023-07-09T02:26:25;12.20;;;5.90;;
49852;SDS011;35751;48.072;11.688;2023-07-09T02:28:51;9.25;;;6.28;;
49852;SDS011;35751;48.072;11.688;2023-07-09T02:31:16;7.18;;;5.32;;
49852;SDS011;35751;48.072;11.688;2023-07-09T02:33:41;10.68;;;5.45;;
49852;SDS011;35751;48.072;11.688;2023-07-09T02:36:07;9.77;;;6.43;;
49852;SDS011;35751;48.072;11.688;2023-07-09T02:38:32;10.50;;;6.00;;
49852;SDS011;35751;48.072;11.688;2023-07-09T02:40:57;9.48;;;5.80;;
49852;SDS011;35751;48.072;11.688;2023-07-09T02:43:23;8.88;;;5.78;;
49852;SDS011;35751;48.072;11.688;2023-07-09T02:45:48;9.10;;;5.50;;
49852;SDS011;35751;48.072;11.688;2023-07-09T02:48:14;11.55;;;5.97;;
49852;SDS011;35751;48.072;11.688;2023-07-09T02:50:39;10.25;;;6.90;;
49852;SDS011;35751;48.072;11.688;2023-07-09T02:53:04;7.30;;;5.22;;
49852;SDS011;35751;48.072;11.688;2023-07-09T02:55:30;12.80;;;6.68;;
49852;SDS011;35751;48.072;11.688;2023-07-09T02:57:55;7.82;;;5.35;;
49852;SDS011;35751;48.072;11.688;2023-07-09T03:00:20;7.80;;;5.25;;
49852;SDS011;35751;48.072;11.688;2023-07-09T03:02:46;9.85;;;6.03;;
49852;SDS011;35751;48.072;11.688;2023-07-09T03:05:11;8.90;;;5.57;;
49852;SDS011;35751;48.072;11.688;2023-07-09T03:07:36;8.05;;;5.35;;
49852;SDS011;35751;48.072;11.688;2023-07-09T03:10:02;10.63;;;6.05;;
49852;SDS011;35751;48.072;11.688;2023-07-09T03:12:27;9.27;;;5.20;;
49852;SDS011;35751;48.072;11.688;2023-07-09T03:14:55;10.07;;;5.65;;
49852;SDS011;35751;48.072;11.688;2023-07-09T03:17:23;10.02;;;5.47;;
49852;SDS011;35751;48.072;11.688;2023-07-09T03:19:48;11.52;;;5.50;;
49852;SDS011;35751;48.072;11.688;2023-07-09T03:22:14;8.10;;;5.30;;
49852;SDS011;35751;48.072;11.688;2023-07-09T03:24:39;10.13;;;5.22;;
49852;SDS011;35751;48.072;11.688;2023-07-09T03:27:05;8.35;;;5.47;;
49852;SDS011;35751;48.072;11.688;2023-07-09T03:29:30;20.48;;;6.85;;
49852;SDS011;35751;48.072;11.688;2023-07-09T03:31:56;8.07;;;5.07;;
49852;SDS011;35751;48.072;11.688;2023-07-09T03:34:21;8.40;;;5.50;;
49852;SDS011;35751;48.072;11.688;2023-07-09T03:36:46;8.20;;;5.30;;
49852;SDS011;35751;48.072;11.688;2023-07-09T03:39:12;9.38;;;4.95;;
49852;SDS011;35751;48.072;11.688;2023-07-09T03:41:40;9.18;;;5.15;;
49852;SDS011;35751;48.072;11.688;2023-07-09T03:44:05;9.43;;;5.25;;
49852;SDS011;35751;48.072;11.688;2023-07-09T03:46:30;8.98;;;5.72;;
49852;SDS011;35751;48.072;11.688;2023-07-09T03:48:57;9.73;;;5.80;;
49852;SDS011;35751;48.072;11.688;2023-07-09T03:51:23;8.30;;;5.07;;
49852;SDS011;35751;48.072;11.688;2023-07-09T03:53:48;7.80;;;5.40;;
49852;SDS011;35751;48.072;11.688;2023-07-09T03:56:14;8.93;;;5.35;;
49852;SDS011;35751;48.072;11.688;2023-07-09T03:58:39;8.65;;;4.75;;
49852;SDS011;35751;48.072;11.688;2023-07-09T04:01:04;9.38;;;5.65;;
49852;SDS011;35751;48.072;11.688;2023-07-09T04:03:30;8.43;;;5.68;;
49852;SDS011;35751;48.072;11.688;2023-07-09T04:05:58;8.07;;;5.28;;
49852;SDS011;35751;48.072;11.688;2023-07-09T04:08:23;9.85;;;5.47;;
49852;SDS011;35751;48.072;11.688;2023-07-09T04:10:52;11.45;;;5.25;;
49852;SDS011;35751;48.072;11.688;2023-07-09T04:13:18;7.72;;;5.47;;
49852;SDS011;35751;48.072;11.688;2023-07-09T04:15:46;9.10;;;4.82;;
49852;SDS011;35751;48.072;11.688;2023-07-09T04:18:16;7.70;;;5.25;;
49852;SDS011;35751;48.072;11.688;2023-07-09T04:20:41;10.15;;;4.93;;
49852;SDS011;35751;48.072;11.688;2023-07-09T04:23:07;12.43;;;4.78;;
49852;SDS011;35751;48.072;11.688;2023-07-09T04:25:33;7.15;;;4.45;;
49852;SDS011;35751;48.072;11.688;2023-07-09T04:27:58;9.82;;;4.88;;
49852;SDS011;35751;48.072;11.688;2023-07-09T04:30:24;9.85;;;4.68;;
49852;SDS011;35751;48.072;11.688;2023-07-09T04:32:50;7.90;;;5.03;;
49852;SDS011;35751;48.072;11.688;2023-07-09T04:35:15;7.63;;;5.18;;
49852;SDS011;35751;48.072;11.688;2023-07-09T04:37:41;7.45;;;5.03;;
49852;SDS011;35751;48.072;11.688;2023-07-09T04:40:07;9.00;;;4.82;;
49852;SDS011;35751;48.072;11.688;2023-07-09T04:42:35;6.90;;;4.82;;
49852;SDS011;35751;48.072;11.688;2023-07-09T04:45:01;7.43;;;4.90;;
49852;SDS011;35751;48.072;11.688;2023-07-09T04:47:26;7.25;;;4.97;;
49852;SDS011;35751;48.072;11.688;2023-07-09T04:49:52;10.00;;;6.03;;
49852;SDS011;35751;48.072;11.688;2023-07-09T04:52:20;8.95;;;5.00;;
49852;SDS011;35751;48.072;11.688;2023-07-09T04:54:47;8.15;;;4.07;;
49852;SDS011;35751;48.072;11.688;2023-07-09T04:57:15;9.15;;;4.43;;
49852;SDS011;35751;48.072;11.688;2023-07-09T04:59:42;7.28;;;5.00;;
49852;SDS011;35751;48.072;11.688;2023-07-09T05:02:08;7.78;;;4.93;;
49852;SDS011;35751;48.072;11.688;2023-07-09T05:04:37;7.60;;;4.30;;
49852;SDS011;35751;48.072;11.688;2023-07-09T05:07:02;8.95;;;4.72;;
49852;SDS011;35751;48.072;11.688;2023-07-09T05:09:27;8.95;;;5.07;;
49852;SDS011;35751;48.072;11.688;2023-07-09T05:11:53;6.45;;;4.20;;
49852;SDS011;35751;48.072;11.688;2023-07-09T05:14:18;8.82;;;4.07;;
49852;SDS011;35751;48.072;11.688;2023-07-09T05:16:44;7.07;;;4.70;;
49852;SDS011;35751;48.072;11.688;2023-07-09T05:19:10;6.50;;;4.03;;
49852;SDS011;35751;48.072;11.688;2023-07-09T05:21:36;5.85;;;4.60;;
49852;SDS011;35751;48.072;11.688;2023-07-09T05:24:02;7.28;;;5.45;;
49852;SDS011;35751;48.072;11.688;2023-07-09T05:26:27;5.80;;;3.92;;
49852;SDS011;35751;48.072;11.688;2023-07-09T05:28:52;6.97;;;4.40;;
49852;SDS011;35751;48.072;11.688;2023-07-09T05:31:18;6.30;;;3.72;;
49852;SDS011;35751;48.072;11.688;2023-07-09T05:33:43;6.25;;;4.53;;
49852;SDS011;35751;48.072;11.688;2023-07-09T05:36:09;6.95;;;4.68;;
49852;SDS011;35751;48.072;11.688;2023-07-09T05:38:40;6.38;;;3.75;;
49852;SDS011;35751;48.072;11.688;2023-07-09T05:41:10;6.97;;;5.03;;
49852;SDS011;35751;48.072;11.688;2023-07-09T05:43:36;8.13;;;4.53;;
49852;SDS011;35751;48.072;11.688;2023-07-09T05:46:02;8.80;;;4.47;;
49852;SDS011;35751;48.072;11.688;2023-07-09T05:48:28;6.63;;;3.72;;
49852;SDS011;35751;48.072;11.688;2023-07-09T05:50:54;5.38;;;3.30;;
49852;SDS011;35751;48.072;11.688;2023-07-09T05:53:20;6.88;;;3.78;;
49852;SDS011;35751;48.072;11.688;2023-07-09T05:55:45;5.72;;;3.47;;
49852;SDS011;35751;48.072;11.688;2023-07-09T05:58:11;6.10;;;3.65;;
49852;SDS011;35751;48.072;11.688;2023-07-09T06:00:36;4.38;;;3.45;;
49852;SDS011;35751;48.072;11.688;2023-07-09T06:03:09;5.53;;;3.83;;
49852;SDS011;35751;48.072;11.688;2023-07-09T06:05:34;9.13;;;3.97;;
49852;SDS011;35751;48.072;11.688;2023-07-09T06:08:00;5.93;;;3.72;;
49852;SDS011;35751;48.072;11.688;2023-07-09T06:10:28;5.05;;;3.55;;
49852;SDS011;35751;48.072;11.688;2023-07-09T06:12:57;6.35;;;3.22;;
49852;SDS011;35751;48.072;11.688;2023-07-09T06:15:25;5.97;;;3.85;;
49852;SDS011;35751;48.072;11.688;2023-07-09T06:17:50;5.53;;;3.42;;
49852;SDS011;35751;48.072;11.688;2023-07-09T06:20:16;3.90;;;2.72;;
49852;SDS011;35751;48.072;11.688;2023-07-09T06:22:41;4.93;;;3.13;;
49852;SDS011;35751;48.072;11.688;2023-07-09T06:25:07;6.13;;;3.17;;
49852;SDS011;35751;48.072;11.688;2023-07-09T06:27:32;5.63;;;3.25;;
49852;SDS011;35751;48.072;11.688;2023-07-09T06:29:58;8.93;;;3.60;;
49852;SDS011;35751;48.072;11.688;2023-07-09T06:32:23;4.88;;;3.22;;
49852;SDS011;35751;48.072;11.688;2023-07-09T06:34:48;4.75;;;3.33;;
49852;SDS011;35751;48.072;11.688;2023-07-09T06:37:14;11.15;;;3.90;;
49852;SDS011;35751;48.072;11.688;2023-07-09T06:39:39;3.63;;;2.75;;
49852;SDS011;35751;48.072;11.688;2023-07-09T06:42:04;7.55;;;3.45;;
49852;SDS011;35751;48.072;11.688;2023-07-09T06:44:32;7.05;;;4.35;;
49852;SDS011;35751;48.072;11.688;2023-07-09T06:46:58;5.85;;;2.97;;
49852;SDS011;35751;48.072;11.688;2023-07-09T06:49:23;3.83;;;2.90;;
49852;SDS011;35751;48.072;11.688;2023-07-09T06:51:48;6.85;;;3.33;;
49852;SDS011;35751;48.072;11.688;2023-07-09T06:54:14;4.10;;;2.80;;
49852;SDS011;35751;48.072;11.688;2023-07-09T06:56:40;5.60;;;3.17;;
49852;SDS011;35751;48.072;11.688;2023-07-09T06:59:06;5.43;;;3.15;;
49852;SDS011;35751;48.072;11.688;2023-07-09T07:01:31;5.40;;;4.05;;
49852;SDS011;35751;48.072;11.688;2023-07-09T07:03:57;4.25;;;3.00;;
49852;SDS011;35751;48.072;11.688;2023-07-09T07:06:22;3.85;;;3.17;;
49852;SDS011;35751;48.072;11.688;2023-07-09T07:08:48;5.93;;;3.53;;
49852;SDS011;35751;48.072;11.688;2023-07-09T07:11:14;6.57;;;3.05;;
49852;SDS011;35751;48.072;11.688;2023-07-09T07:13:39;6.88;;;4.15;;
49852;SDS011;35751;48.072;11.688;2023-07-09T07:16:07;8.63;;;3.97;;
49852;SDS011;35751;48.072;11.688;2023-07-09T07:18:33;4.50;;;3.40;;
49852;SDS011;35751;48.072;11.688;2023-07-09T07:20:59;4.47;;;3.00;;
49852;SDS011;35751;48.072;11.688;2023-07-09T07:23:27;5.32;;;2.80;;
49852;SDS011;35751;48.072;11.688;2023-07-09T07:25:53;5.55;;;3.55;;
49852;SDS011;35751;48.072;11.688;2023-07-09T07:28:19;3.70;;;2.95;;
49852;SDS011;35751;48.072;11.688;2023-07-09T07:30:45;6.85;;;3.53;;
49852;SDS011;35751;48.072;11.688;2023-07-09T07:33:10;6.18;;;3.13;;
49852;SDS011;35751;48.072;11.688;2023-07-09T07:35:38;9.65;;;3.58;;
49852;SDS011;35751;48.072;11.688;2023-07-09T07:38:03;4.78;;;3.03;;
49852;SDS011;35751;48.072;11.688;2023-07-09T07:40:28;7.32;;;3.97;;
49852;SDS011;35751;48.072;11.688;2023-07-09T07:42:54;5.60;;;3.20;;
49852;SDS011;35751;48.072;11.688;2023-07-09T07:45:20;6.35;;;3.10;;
49852;SDS011;35751;48.072;11.688;2023-07-09T07:47:45;6.13;;;3.35;;
49852;SDS011;35751;48.072;11.688;2023-07-09T07:50:11;5.90;;;3.42;;
49852;SDS011;35751;48.072;11.688;2023-07-09T07:52:36;4.78;;;3.05;;
49852;SDS011;35751;48.072;11.688;2023-07-09T07:55:03;5.30;;;3.38;;
49852;SDS011;35751;48.072;11.688;2023-07-09T07:57:29;7.60;;;3.20;;
49852;SDS011;35751;48.072;11.688;2023-07-09T07:59:55;6.15;;;3.88;;
49852;SDS011;35751;48.072;11.688;2023-07-09T08:02:20;6.72;;;4.40;;
49852;SDS011;35751;48.072;11.688;2023-07-09T08:04:46;8.02;;;4.32;;
49852;SDS011;35751;48.072;11.688;2023-07-09T08:07:11;4.57;;;3.17;;
49852;SDS011;35751;48.072;11.688;2023-07-09T08:09:37;6.78;;;3.35;;
49852;SDS011;35751;48.072;11.688;2023-07-09T08:12:03;7.97;;;3.95;;
49852;SDS011;35751;48.072;11.688;2023-07-09T08:14:35;5.22;;;3.55;;
49852;SDS011;35751;48.072;11.688;2023-07-09T08:17:00;6.30;;;4.07;;
49852;SDS011;35751;48.072;11.688;2023-07-09T08:19:28;5.22;;;3.60;;
49852;SDS011;35751;48.072;11.688;2023-07-09T08:21:53;6.43;;;4.55;;
49852;SDS011;35751;48.072;11.688;2023-07-09T08:24:19;6.43;;;3.50;;
49852;SDS011;35751;48.072;11.688;2023-07-09T08:26:44;5.32;;;4.03;;
49852;SDS011;35751;48.072;11.688;2023-07-09T08:29:10;6.85;;;3.95;;
49852;SDS011;35751;48.072;11.688;2023-07-09T08:31:38;6.97;;;3.92;;
49852;SDS011;35751;48.072;11.688;2023-07-09T08:34:05;7.95;;;4.03;;
49852;SDS011;35751;48.072;11.688;2023-07-09T08:36:32;4.72;;;3.60;;
49852;SDS011;35751;48.072;11.688;2023-07-09T08:38:58;6.72;;;3.35;;
49852;SDS011;35751;48.072;11.688;2023-07-09T08:41:35;9.13;;;3.97;;
49852;SDS011;35751;48.072;11.688;2023-07-09T08:47:04;4.85;;;3.28;;
49852;SDS011;35751;48.072;11.688;2023-07-09T08:49:41;5.80;;;3.30;;
49852;SDS011;35751;48.072;11.688;2023-07-09T08:52:14;5.88;;;3.13;;
49852;SDS011;35751;48.072;11.688;2023-07-09T08:54:43;6.35;;;4.30;;
49852;SDS011;35751;48.072;11.688;2023-07-09T09:00:05;5.80;;;3.70;;
49852;SDS011;35751;48.072;11.688;2023-07-09T09:02:35;7.70;;;4.00;;
49852;SDS011;35751;48.072;11.688;2023-07-09T09:05:07;4.68;;;2.78;;
49852;SDS011;35751;48.072;11.688;2023-07-09T09:07:40;5.50;;;3.75;;
49852;SDS011;35751;48.072;11.688;2023-07-09T09:10:11;6.17;;;3.40;;
49852;SDS011;35751;48.072;11.688;2023-07-09T09:12:44;5.05;;;3.35;;
49852;SDS011;35751;48.072;11.688;2023-07-09T09:15:17;5.30;;;3.47;;
49852;SDS011;35751;48.072;11.688;2023-07-09T09:17:43;5.05;;;3.30;;
49852;SDS011;35751;48.072;11.688;2023-07-09T09:20:15;6.72;;;4.35;;
49852;SDS011;35751;48.072;11.688;2023-07-09T09:23:15;5.77;;;4.57;;
49852;SDS011;35751;48.072;11.688;2023-07-09T09:25:41;5.82;;;3.75;;
49852;SDS011;35751;48.072;11.688;2023-07-09T09:28:09;8.00;;;4.25;;
49852;SDS011;35751;48.072;11.688;2023-07-09T09:30:37;8.15;;;3.67;;
49852;SDS011;35751;48.072;11.688;2023-07-09T09:33:06;9.27;;;3.97;;
49852;SDS011;35751;48.072;11.688;2023-07-09T09:35:34;5.20;;;3.83;;
49852;SDS011;35751;48.072;11.688;2023-07-09T09:38:01;4.55;;;3.75;;
49852;SDS011;35751;48.072;11.688;2023-07-09T09:40:29;6.00;;;4.10;;
49852;SDS011;35751;48.072;11.688;2023-07-09T09:42:58;8.55;;;4.03;;
49852;SDS011;35751;48.072;11.688;2023-07-09T09:45:32;5.75;;;3.45;;
49852;SDS011;35751;48.072;11.688;2023-07-09T09:48:00;5.30;;;3.55;;
49852;SDS011;35751;48.072;11.688;2023-07-09T09:50:27;10.60;;;4.53;;
49852;SDS011;35751;48.072;11.688;2023-07-09T09:52:58;5.75;;;3.50;;
49852;SDS011;35751;48.072;11.688;2023-07-09T09:55:30;7.40;;;4.40;;
49852;SDS011;35751;48.072;11.688;2023-07-09T09:58:02;7.75;;;3.67;;
49852;SDS011;35751;48.072;11.688;2023-07-09T10:00:28;5.95;;;3.90;;
49852;SDS011;35751;48.072;11.688;2023-07-09T10:02:58;9.27;;;4.13;;
49852;SDS011;35751;48.072;11.688;2023-07-09T10:05:30;7.47;;;4.15;;
49852;SDS011;35751;48.072;11.688;2023-07-09T10:08:08;5.95;;;4.15;;
49852;SDS011;35751;48.072;11.688;2023-07-09T10:10:40;5.45;;;4.07;;
49852;SDS011;35751;48.072;11.688;2023-07-09T10:13:14;7.70;;;3.75;;
49852;SDS011;35751;48.072;11.688;2023-07-09T10:18:55;6.68;;;4.03;;
49852;SDS011;35751;48.072;11.688;2023-07-09T10:21:36;8.75;;;4.22;;
49852;SDS011;35751;48.072;11.688;2023-07-09T10:26:35;6.50;;;4.25;;
49852;SDS011;35751;48.072;11.688;2023-07-09T10:32:34;8.15;;;3.80;;
49852;SDS011;35751;48.072;11.688;2023-07-09T10:37:41;5.65;;;3.80;;
49852;SDS011;35751;48.072;11.688;2023-07-09T10:40:46;4.55;;;3.40;;
49852;SDS011;35751;48.072;11.688;2023-07-09T10:43:33;6.78;;;4.45;;
49852;SDS011;35751;48.072;11.688;2023-07-09T10:46:25;4.90;;;4.18;;
49852;SDS011;35751;48.072;11.688;2023-07-09T10:48:53;6.35;;;3.72;;
49852;SDS011;35751;48.072;11.688;2023-07-09T10:51:25;5.18;;;3.22;;
49852;SDS011;35751;48.072;11.688;2023-07-09T10:57:14;7.45;;;3.75;;
49852;SDS011;35751;48.072;11.688;2023-07-09T10:59:50;7.20;;;4.03;;
49852;SDS011;35751;48.072;11.688;2023-07-09T11:02:32;8.18;;;4.15;;
49852;SDS011;35751;48.072;11.688;2023-07-09T11:04:59;4.43;;;3.42;;
49852;SDS011;35751;48.072;11.688;2023-07-09T11:10:01;7.97;;;3.92;;
49852;SDS011;35751;48.072;11.688;2023-07-09T11:15:03;6.63;;;3.72;;
49852;SDS011;35751;48.072;11.688;2023-07-09T11:17:30;4.97;;;3.70;;
49852;SDS011;35751;48.072;11.688;2023-07-09T11:19:57;9.10;;;3.95;;
49852;SDS011;35751;48.072;11.688;2023-07-09T11:22:50;6.95;;;3.70;;
49852;SDS011;35751;48.072;11.688;2023-07-09T11:25:26;4.00;;;3.58;;
49852;SDS011;35751;48.072;11.688;2023-07-09T11:28:12;4.53;;;3.95;;
49852;SDS011;35751;48.072;11.688;2023-07-09T11:35:54;7.43;;;3.88;;
49852;SDS011;35751;48.072;11.688;2023-07-09T11:38:39;5.82;;;3.63;;
49852;SDS011;35751;48.072;11.688;2023-07-09T11:41:25;7.05;;;3.67;;
49852;SDS011;35751;48.072;11.688;2023-07-09T11:44:14;4.93;;;3.58;;
49852;SDS011;35751;48.072;11.688;2023-07-09T11:49:27;4.40;;;3.28;;
49852;SDS011;35751;48.072;11.688;2023-07-09T11:51:55;3.65;;;3.20;;
49852;SDS011;35751;48.072;11.688;2023-07-09T11:54:24;4.80;;;3.72;;
49852;SDS011;35751;48.072;11.688;2023-07-09T11:56:53;7.63;;;4.28;;
49852;SDS011;35751;48.072;11.688;2023-07-09T11:59:20;4.38;;;3.63;;
49852;SDS011;35751;48.072;11.688;2023-07-09T12:01:45;7.45;;;4.20;;
49852;SDS011;35751;48.072;11.688;2023-07-09T12:04:15;4.10;;;3.15;;
49852;SDS011;35751;48.072;11.688;2023-07-09T12:06:41;5.63;;;3.22;;
49852;SDS011;35751;48.072;11.688;2023-07-09T12:09:09;6.90;;;3.33;;
49852;SDS011;35751;48.072;11.688;2023-07-09T12:11:43;6.20;;;3.73;;
49852;SDS011;35751;48.072;11.688;2023-07-09T12:14:10;5.68;;;3.40;;
49852;SDS011;35751;48.072;11.688;2023-07-09T12:16:47;5.70;;;3.90;;
49852;SDS011;35751;48.072;11.688;2023-07-09T12:19:15;5.22;;;3.40;;
49852;SDS011;35751;48.072;11.688;2023-07-09T12:21:43;6.65;;;3.35;;
49852;SDS011;35751;48.072;11.688;2023-07-09T12:26:49;10.75;;;4.05;;
49852;SDS011;35751;48.072;11.688;2023-07-09T12:29:16;6.97;;;3.45;;
49852;SDS011;35751;48.072;11.688;2023-07-09T12:31:42;7.00;;;4.20;;
49852;SDS011;35751;48.072;11.688;2023-07-09T12:34:10;4.53;;;3.67;;
49852;SDS011;35751;48.072;11.688;2023-07-09T12:36:37;8.48;;;4.13;;
49852;SDS011;35751;48.072;11.688;2023-07-09T12:39:04;6.32;;;3.30;;
49852;SDS011;35751;48.072;11.688;2023-07-09T12:41:37;5.45;;;3.33;;
49852;SDS011;35751;48.072;11.688;2023-07-09T12:44:04;4.88;;;3.35;;
49852;SDS011;35751;48.072;11.688;2023-07-09T12:46:30;4.70;;;3.65;;
49852;SDS011;35751;48.072;11.688;2023-07-09T12:48:56;6.50;;;3.95;;
49852;SDS011;35751;48.072;11.688;2023-07-09T12:51:22;6.00;;;4.10;;
49852;SDS011;35751;48.072;11.688;2023-07-09T12:53:59;5.15;;;3.78;;
49852;SDS011;35751;48.072;11.688;2023-07-09T12:56:36;6.03;;;3.22;;
49852;SDS011;35751;48.072;11.688;2023-07-09T12:59:01;4.68;;;3.38;;
49852;SDS011;35751;48.072;11.688;2023-07-09T13:01:27;6.82;;;3.80;;
49852;SDS011;35751;48.072;11.688;2023-07-09T13:10:11;5.50;;;3.90;;
49852;SDS011;35751;48.072;11.688;2023-07-09T13:13:10;4.50;;;3.90;;
49852;SDS011;35751;48.072;11.688;2023-07-09T13:15:42;9.35;;;3.50;;
49852;SDS011;35751;48.072;11.688;2023-07-09T13:18:09;5.38;;;3.33;;
49852;SDS011;35751;48.072;11.688;2023-07-09T13:20:37;4.32;;;3.60;;
49852;SDS011;35751;48.072;11.688;2023-07-09T13:23:11;4.53;;;3.22;;
49852;SDS011;35751;48.072;11.688;2023-07-09T13:25:39;5.05;;;3.70;;
49852;SDS011;35751;48.072;11.688;2023-07-09T13:28:08;4.10;;;3.35;;
49852;SDS011;35751;48.072;11.688;2023-07-09T13:30:39;6.18;;;3.58;;
49852;SDS011;35751;48.072;11.688;2023-07-09T13:33:07;5.43;;;3.55;;
49852;SDS011;35751;48.072;11.688;2023-07-09T13:35:33;5.53;;;3.70;;
49852;SDS011;35751;48.072;11.688;2023-07-09T13:38:02;4.28;;;3.60;;
49852;SDS011;35751;48.072;11.688;2023-07-09T13:40:30;6.55;;;3.88;;
49852;SDS011;35751;48.072;11.688;2023-07-09T13:42:55;5.38;;;4.00;;
49852;SDS011;35751;48.072;11.688;2023-07-09T13:45:24;5.28;;;3.25;;
49852;SDS011;35751;48.072;11.688;2023-07-09T13:47:51;4.97;;;3.75;;
49852;SDS011;35751;48.072;11.688;2023-07-09T13:50:17;7.05;;;4.28;;
49852;SDS011;35751;48.072;11.688;2023-07-09T13:52:43;6.53;;;3.60;;
49852;SDS011;35751;48.072;11.688;2023-07-09T13:55:17;6.03;;;3.70;;
49852;SDS011;35751;48.072;11.688;2023-07-09T13:57:44;6.40;;;3.35;;
49852;SDS011;35751;48.072;11.688;2023-07-09T14:00:10;5.65;;;3.75;;
49852;SDS011;35751;48.072;11.688;2023-07-09T14:02:36;5.95;;;3.80;;
49852;SDS011;35751;48.072;11.688;2023-07-09T14:05:03;5.80;;;3.63;;
49852;SDS011;35751;48.072;11.688;2023-07-09T14:07:30;6.15;;;4.13;;
49852;SDS011;35751;48.072;11.688;2023-07-09T14:09:57;4.22;;;3.45;;
49852;SDS011;35751;48.072;11.688;2023-07-09T14:12:23;7.63;;;3.90;;
49852;SDS011;35751;48.072;11.688;2023-07-09T14:14:50;4.53;;;3.60;;
49852;SDS011;35751;48.072;11.688;2023-07-09T14:17:16;7.03;;;3.78;;
49852;SDS011;35751;48.072;11.688;2023-07-09T14:19:41;6.65;;;3.90;;
49852;SDS011;35751;48.072;11.688;2023-07-09T14:22:40;4.95;;;3.08;;
49852;SDS011;35751;48.072;11.688;2023-07-09T14:24:59;4.40;;;3.40;;
49852;SDS011;35751;48.072;11.688;2023-07-09T14:27:25;6.28;;;3.75;;
49852;SDS011;35751;48.072;11.688;2023-07-09T14:29:51;6.47;;;3.92;;
49852;SDS011;35751;48.072;11.688;2023-07-09T14:34:58;6.07;;;3.70;;
49852;SDS011;35751;48.072;11.688;2023-07-09T14:37:24;9.00;;;4.05;;
49852;SDS011;35751;48.072;11.688;2023-07-09T14:39:49;7.03;;;4.10;;
49852;SDS011;35751;48.072;11.688;2023-07-09T14:42:15;4.13;;;3.40;;
49852;SDS011;35751;48.072;11.688;2023-07-09T14:44:41;5.53;;;3.38;;
49852;SDS011;35751;48.072;11.688;2023-07-09T14:47:15;5.60;;;3.70;;
49852;SDS011;35751;48.072;11.688;2023-07-09T14:49:41;8.57;;;4.43;;
49852;SDS011;35751;48.072;11.688;2023-07-09T14:52:13;4.22;;;3.40;;
49852;SDS011;35751;48.072;11.688;2023-07-09T14:54:48;6.47;;;4.18;;
49852;SDS011;35751;48.072;11.688;2023-07-09T14:57:17;4.45;;;3.83;;
49852;SDS011;35751;48.072;11.688;2023-07-09T14:59:47;6.85;;;3.60;;
49852;SDS011;35751;48.072;11.688;2023-07-09T15:05:06;7.90;;;3.60;;
49852;SDS011;35751;48.072;11.688;2023-07-09T15:07:38;4.57;;;3.13;;
49852;SDS011;35751;48.072;11.688;2023-07-09T15:10:03;4.80;;;3.70;;
49852;SDS011;35751;48.072;11.688;2023-07-09T15:12:33;4.78;;;3.78;;
49852;SDS011;35751;48.072;11.688;2023-07-09T15:15:15;5.18;;;3.92;;
49852;SDS011;35751;48.072;11.688;2023-07-09T15:17:55;5.32;;;3.40;;
49852;SDS011;35751;48.072;11.688;2023-07-09T15:20:22;5.80;;;3.83;;
49852;SDS011;35751;48.072;11.688;2023-07-09T15:22:49;5.45;;;3.85;;
49852;SDS011;35751;48.072;11.688;2023-07-09T15:25:19;5.18;;;3.95;;
49852;SDS011;35751;48.072;11.688;2023-07-09T15:27:46;5.30;;;4.05;;
49852;SDS011;35751;48.072;11.688;2023-07-09T15:30:12;5.30;;;3.75;;
49852;SDS011;35751;48.072;11.688;2023-07-09T15:32:38;4.00;;;3.17;;